createdAt,value
2023-01-19T00:00:31.306Z,83.60
2023-01-19T00:03:18.288Z,83.98
2023-01-19T00:05:45.276Z,83.73
2023-01-19T00:08:15.513Z,83.09
2023-01-19T00:10:48.085Z,82.50
2023-01-19T00:13:15.658Z,83.10
2023-01-19T00:15:43.309Z,82.81
2023-01-19T00:18:11.100Z,82.73
2023-01-19T00:20:41.763Z,82.68
2023-01-19T00:23:08.916Z,83.07
2023-01-19T00:25:41.806Z,83.02
2023-01-19T00:28:11.164Z,84.63
2023-01-19T00:30:39.031Z,83.87
2023-01-19T00:33:06.031Z,83.73
2023-01-19T00:35:34.201Z,83.45
2023-01-19T00:38:01.757Z,83.04
2023-01-19T00:40:28.823Z,84.15
2023-01-19T00:42:55.791Z,83.90
2023-01-19T00:45:24.121Z,83.83
2023-01-19T00:47:56.510Z,83.38
2023-01-19T00:50:25.008Z,84.11
2023-01-19T00:52:53.676Z,83.62
2023-01-19T00:55:20.897Z,83.88
2023-01-19T00:57:48.447Z,84.29
2023-01-19T01:00:19.200Z,84.72
2023-01-19T01:02:47.828Z,84.11
2023-01-19T01:05:15.901Z,84.44
2023-01-19T01:07:46.498Z,85.53
2023-01-19T01:10:14.986Z,87.13
2023-01-19T01:12:54.857Z,87.58
2023-01-19T01:15:25.969Z,88.45
2023-01-19T01:17:53.327Z,87.50
2023-01-19T01:20:22.998Z,87.30
2023-01-19T01:22:52.075Z,87.68
2023-01-19T01:25:22.032Z,87.72
2023-01-19T01:27:49.704Z,88.04
2023-01-19T01:30:17.212Z,87.76
2023-01-19T01:32:44.356Z,87.66
2023-01-19T01:35:12.619Z,87.02
2023-01-19T01:37:40.061Z,86.54
2023-01-19T01:40:08.699Z,86.92
2023-01-19T01:42:35.705Z,86.46
2023-01-19T01:45:20.748Z,86.09
2023-01-19T01:47:49.382Z,85.83
2023-01-19T01:50:22.604Z,85.55
2023-01-19T01:53:06.910Z,85.72
2023-01-19T01:55:40.279Z,85.43
2023-01-19T01:58:10.039Z,85.51
2023-01-19T02:00:57.114Z,85.39
2023-01-19T02:03:25.742Z,85.79
2023-01-19T02:05:56.982Z,86.14
2023-01-19T02:09:06.157Z,86.04
2023-01-19T02:11:53.709Z,86.08
2023-01-19T02:14:21.199Z,85.49
2023-01-19T02:16:48.268Z,85.62
2023-01-19T02:19:30.366Z,85.41
2023-01-19T02:22:05.965Z,85.54
2023-01-19T02:24:33.262Z,85.27
2023-01-19T02:27:00.755Z,84.73
2023-01-19T02:29:28.295Z,85.08
2023-01-19T02:31:56.738Z,85.41
2023-01-19T02:34:23.683Z,85.71
2023-01-19T02:36:57.720Z,85.64
2023-01-19T02:39:40.952Z,85.77
2023-01-19T02:42:23.570Z,86.16
2023-01-19T02:44:54.487Z,85.98
2023-01-19T02:47:21.625Z,85.82
2023-01-19T02:49:59.714Z,85.49
2023-01-19T02:52:27.686Z,85.26
2023-01-19T02:55:06.662Z,86.77
2023-01-19T02:57:48.487Z,85.91
2023-01-19T03:00:36.741Z,85.93
2023-01-19T03:03:19.006Z,86.33
2023-01-19T03:06:21.629Z,86.75
2023-01-19T03:09:03.844Z,86.95
2023-01-19T03:11:39.216Z,86.45
2023-01-19T03:14:18.935Z,86.16
2023-01-19T03:16:50.830Z,86.36
2023-01-19T03:19:23.165Z,86.95
2023-01-19T03:22:00.426Z,87.64
2023-01-19T03:24:30.996Z,87.23
2023-01-19T03:27:06.544Z,87.32
2023-01-19T03:29:36.424Z,86.92
2023-01-19T03:32:09.935Z,87.07
2023-01-19T03:34:40.292Z,87.37
2023-01-19T03:37:09.845Z,86.83
2023-01-19T03:39:37.151Z,86.80
2023-01-19T03:42:08.879Z,86.45
2023-01-19T03:44:39.729Z,86.62
2023-01-19T03:47:08.910Z,87.00
2023-01-19T03:49:37.335Z,87.46
2023-01-19T03:52:04.719Z,87.39
2023-01-19T03:54:31.788Z,87.48
2023-01-19T03:56:58.690Z,87.02
2023-01-19T03:59:25.702Z,86.99
2023-01-19T04:01:52.695Z,87.06
2023-01-19T04:04:19.769Z,87.76
2023-01-19T04:06:46.944Z,87.93
2023-01-19T04:09:13.914Z,88.55
2023-01-19T04:11:40.882Z,88.63
2023-01-19T04:14:07.835Z,88.96
2023-01-19T04:16:34.987Z,89.29
2023-01-19T04:19:01.964Z,89.28
2023-01-19T04:21:28.934Z,89.63
2023-01-19T04:23:55.951Z,89.42
2023-01-19T04:26:23.464Z,89.25
2023-01-19T04:28:50.435Z,89.15
2023-01-19T04:31:18.804Z,89.31
2023-01-19T04:33:45.877Z,88.93
2023-01-19T04:36:12.809Z,88.79
2023-01-19T04:38:39.750Z,88.57
2023-01-19T04:41:06.742Z,88.10
2023-01-19T04:43:33.922Z,88.81
2023-01-19T04:46:01.046Z,88.53
2023-01-19T04:48:28.088Z,88.27
2023-01-19T04:50:55.028Z,88.50
2023-01-19T04:53:22.203Z,88.89
2023-01-19T04:55:54.445Z,89.39
2023-01-19T04:58:21.688Z,90.49
2023-01-19T05:00:50.542Z,91.14
2023-01-19T05:03:18.830Z,90.75
2023-01-19T05:05:45.959Z,91.26
2023-01-19T05:08:12.904Z,91.32
2023-01-19T05:10:39.831Z,90.62
2023-01-19T05:13:06.847Z,90.08
2023-01-19T05:15:33.806Z,89.61
2023-01-19T05:18:00.874Z,89.16
2023-01-19T05:20:27.844Z,88.81
2023-01-19T05:22:54.884Z,89.13
2023-01-19T05:25:21.868Z,88.58
2023-01-19T05:27:48.959Z,88.59
2023-01-19T05:30:16.390Z,88.55
2023-01-19T05:32:43.776Z,88.48
2023-01-19T05:35:12.879Z,88.65
2023-01-19T05:37:40.496Z,88.35
2023-01-19T05:40:08.640Z,88.36
2023-01-19T05:42:36.497Z,88.49
2023-01-19T05:45:04.647Z,88.69
2023-01-19T05:47:31.811Z,88.52
2023-01-19T05:49:58.732Z,88.46
2023-01-19T05:52:25.707Z,88.46
2023-01-19T05:54:54.516Z,88.28
2023-01-19T05:57:22.283Z,88.11
2023-01-19T05:59:49.416Z,88.29
2023-01-19T06:02:16.647Z,88.63
2023-01-19T06:04:44.278Z,88.83
2023-01-19T06:07:11.311Z,88.36
2023-01-19T06:09:38.294Z,88.93
2023-01-19T06:12:05.724Z,88.50
2023-01-19T06:14:32.656Z,88.00
2023-01-19T06:16:59.592Z,88.37
2023-01-19T06:19:26.729Z,88.55
2023-01-19T06:21:53.659Z,88.24
2023-01-19T06:24:20.851Z,88.01
2023-01-19T06:26:47.796Z,87.94
2023-01-19T06:29:14.921Z,87.75
2023-01-19T06:31:42.610Z,88.94
2023-01-19T06:34:10.006Z,88.18
2023-01-19T06:36:37.035Z,88.13
2023-01-19T06:39:05.473Z,87.91
2023-01-19T06:41:33.789Z,88.00
2023-01-19T06:44:01.212Z,87.94
2023-01-19T06:46:31.408Z,88.13
2023-01-19T06:48:58.378Z,88.10
2023-01-19T06:51:25.436Z,88.28
2023-01-19T06:53:52.895Z,88.24
2023-01-19T06:56:22.745Z,87.88
2023-01-19T06:58:53.716Z,87.85
2023-01-19T07:01:20.783Z,88.03
2023-01-19T07:03:48.083Z,88.03
2023-01-19T07:06:15.149Z,87.94
2023-01-19T07:08:42.184Z,87.97
2023-01-19T07:11:26.649Z,88.28
2023-01-19T07:13:58.547Z,88.28
2023-01-19T07:16:26.146Z,88.11
2023-01-19T07:18:53.117Z,88.07
2023-01-19T07:21:20.496Z,88.21
2023-01-19T07:23:51.856Z,88.17
2023-01-19T07:26:20.694Z,88.14
2023-01-19T07:28:48.585Z,88.37
2023-01-19T07:31:16.551Z,88.47
2023-01-19T07:33:44.364Z,88.45
2023-01-19T07:36:11.684Z,88.17
2023-01-19T07:38:39.087Z,87.95
2023-01-19T07:41:09.132Z,87.91
2023-01-19T07:43:36.195Z,87.50
2023-01-19T07:46:05.630Z,87.48
2023-01-19T07:48:32.903Z,87.46
2023-01-19T07:51:01.526Z,87.23
2023-01-19T07:53:28.506Z,87.36
2023-01-19T07:55:56.253Z,87.00
2023-01-19T07:58:24.859Z,87.19
2023-01-19T08:00:52.348Z,86.79
2023-01-19T08:03:19.739Z,86.60
2023-01-19T08:05:51.333Z,86.43
2023-01-19T08:08:18.908Z,86.30
2023-01-19T08:10:49.723Z,86.25
2023-01-19T08:13:16.767Z,85.99
2023-01-19T08:15:44.055Z,85.98
2023-01-19T08:18:11.147Z,85.17
2023-01-19T08:20:38.346Z,84.96
2023-01-19T08:23:05.315Z,84.99
2023-01-19T08:25:44.542Z,85.57
2023-01-19T08:28:14.127Z,85.37
2023-01-19T08:30:43.738Z,85.25
2023-01-19T08:33:12.261Z,85.09
2023-01-19T08:35:41.658Z,84.66
2023-01-19T08:38:09.828Z,84.44
2023-01-19T08:40:39.003Z,84.05
2023-01-19T08:43:14.988Z,83.66
2023-01-19T08:45:48.529Z,83.27
2023-01-19T08:48:18.061Z,83.05
2023-01-19T08:50:46.789Z,83.00
2023-01-19T08:53:14.669Z,82.71
2023-01-19T08:55:41.757Z,82.82
2023-01-19T08:58:09.105Z,82.57
2023-01-19T09:00:37.819Z,82.45
2023-01-19T09:03:06.707Z,82.37
2023-01-19T09:05:36.859Z,82.41
2023-01-19T09:08:13.874Z,82.51
2023-01-19T09:10:49.799Z,82.11
2023-01-19T09:13:18.308Z,81.68
2023-01-19T09:15:45.793Z,81.13
2023-01-19T09:18:16.472Z,79.84
2023-01-19T09:20:45.442Z,78.66
2023-01-19T09:23:14.785Z,77.51
2023-01-19T09:25:43.506Z,76.40
2023-01-19T09:28:12.432Z,75.43
2023-01-19T09:30:40.929Z,74.60
2023-01-19T09:33:10.632Z,73.36
2023-01-19T09:35:38.996Z,74.13
2023-01-19T09:38:08.331Z,72.47
2023-01-19T09:41:12.120Z,72.01
2023-01-19T09:43:45.112Z,73.19
2023-01-19T09:46:21.837Z,73.52
2023-01-19T09:48:54.010Z,73.01
2023-01-19T09:51:32.086Z,72.46
2023-01-19T09:54:28.659Z,70.82
2023-01-19T09:56:55.765Z,71.06
2023-01-19T09:59:36.629Z,69.81
2023-01-19T10:02:22.179Z,68.99
2023-01-19T10:04:52.532Z,70.45
2023-01-19T10:08:07.889Z,68.45
2023-01-19T10:10:37.173Z,67.11
2023-01-19T10:13:13.768Z,67.28
2023-01-19T10:16:09.963Z,66.10
2023-01-19T10:18:47.379Z,66.73
2023-01-19T10:21:19.204Z,65.53
2023-01-19T10:23:55.398Z,65.55
2023-01-19T10:26:33.464Z,66.21
2023-01-19T10:29:37.156Z,65.87
2023-01-19T10:32:19.369Z,65.83
2023-01-19T10:34:48.522Z,66.14
2023-01-19T10:37:27.454Z,65.47
2023-01-19T10:40:01.899Z,64.99
2023-01-19T10:42:30.384Z,63.39
2023-01-19T10:44:57.497Z,63.92
2023-01-19T10:47:33.033Z,62.18
2023-01-19T10:50:06.232Z,63.16
2023-01-19T10:52:36.780Z,63.71
2023-01-19T10:55:06.886Z,63.23
2023-01-19T10:57:37.769Z,63.02
2023-01-19T11:00:07.417Z,63.26
2023-01-19T11:02:34.502Z,63.01
2023-01-19T11:05:23.113Z,63.12
2023-01-19T11:07:50.392Z,62.68
2023-01-19T11:10:17.961Z,62.98
2023-01-19T11:13:23.505Z,62.29
2023-01-19T11:15:56.882Z,63.45
2023-01-19T11:18:29.959Z,63.70
2023-01-19T11:21:16.688Z,63.30
2023-01-19T11:23:52.134Z,61.79
2023-01-19T11:26:47.525Z,62.94
2023-01-19T11:29:23.755Z,64.18
2023-01-19T11:31:52.771Z,64.62
2023-01-19T11:34:26.975Z,61.47
2023-01-19T11:37:19.924Z,57.42
2023-01-19T11:39:52.604Z,56.88
2023-01-19T11:42:20.888Z,54.84
2023-01-19T11:44:58.752Z,54.61
2023-01-19T11:47:42.617Z,55.32
2023-01-19T11:50:09.539Z,56.15
2023-01-19T11:52:57.276Z,55.66
2023-01-19T11:55:36.380Z,55.81
2023-01-19T11:58:04.896Z,56.01
2023-01-19T12:00:37.861Z,56.70
2023-01-19T12:03:45.968Z,57.38
2023-01-19T12:06:22.151Z,57.73
2023-01-19T12:09:08.996Z,58.20
2023-01-19T12:12:05.838Z,58.57
2023-01-19T12:15:04.635Z,58.78
2023-01-19T12:17:45.490Z,59.15
2023-01-19T12:20:21.412Z,59.56
2023-01-19T12:22:59.579Z,59.64
2023-01-19T12:25:52.718Z,59.54
2023-01-19T12:28:28.298Z,60.15
2023-01-19T12:30:56.652Z,60.20
2023-01-19T12:33:37.189Z,59.96
2023-01-19T12:36:06.484Z,59.48
2023-01-19T12:38:36.239Z,58.84
2023-01-19T12:41:23.832Z,58.34
2023-01-19T12:44:09.249Z,58.02
2023-01-19T12:47:05.789Z,57.57
2023-01-19T12:50:16.509Z,56.92
2023-01-19T12:52:56.362Z,56.08
2023-01-19T12:55:30.565Z,56.23
2023-01-19T12:58:02.470Z,56.61
2023-01-19T13:00:33.092Z,57.02
2023-01-19T13:03:16.882Z,56.77
2023-01-19T13:05:43.828Z,56.85
2023-01-19T13:08:13.552Z,57.43
2023-01-19T13:11:01.870Z,57.27
2023-01-19T13:13:30.072Z,57.74
2023-01-19T13:16:19.631Z,57.76
2023-01-19T13:18:48.612Z,57.68
2023-01-19T13:21:40.253Z,57.89
2023-01-19T13:24:09.989Z,58.15
2023-01-19T13:26:40.935Z,58.45
2023-01-19T13:29:07.933Z,58.49
2023-01-19T13:31:37.969Z,58.68
2023-01-19T13:34:12.900Z,58.80
2023-01-19T13:36:44.739Z,58.66
2023-01-19T13:39:25.194Z,58.93
2023-01-19T13:41:55.133Z,58.88
2023-01-19T13:44:34.559Z,58.78
2023-01-19T13:47:03.975Z,59.06
2023-01-19T13:49:38.574Z,58.73
2023-01-19T13:52:16.396Z,58.89
2023-01-19T13:54:48.590Z,59.00
2023-01-19T13:57:27.758Z,58.33
2023-01-19T14:00:13.808Z,58.27
2023-01-19T14:02:51.132Z,58.10
2023-01-19T14:05:34.905Z,58.18
2023-01-19T14:08:07.923Z,58.12
2023-01-19T14:10:36.181Z,58.20
2023-01-19T14:13:26.083Z,58.23
2023-01-19T14:15:55.960Z,58.19
2023-01-19T14:18:29.625Z,58.53
2023-01-19T14:20:56.563Z,58.29
2023-01-19T14:23:51.444Z,58.65
2023-01-19T14:26:36.829Z,58.42
2023-01-19T14:29:09.548Z,58.42
2023-01-19T14:31:59.515Z,58.64
2023-01-19T14:34:44.386Z,58.66
2023-01-19T14:37:22.260Z,58.85
2023-01-19T14:40:04.204Z,59.17
2023-01-19T14:42:38.201Z,58.90
2023-01-19T14:45:17.603Z,58.82
2023-01-19T14:47:52.545Z,59.21
2023-01-19T14:50:33.696Z,59.37
2023-01-19T14:53:04.057Z,59.43
2023-01-19T14:55:39.698Z,59.26
2023-01-19T14:58:11.235Z,59.28
2023-01-19T15:00:39.336Z,59.31
2023-01-19T15:03:06.854Z,59.21
2023-01-19T15:05:33.777Z,59.37
2023-01-19T15:08:02.986Z,59.20
2023-01-19T15:10:30.716Z,59.34
2023-01-19T15:12:57.745Z,59.25
2023-01-19T15:15:33.821Z,59.61
2023-01-19T15:18:02.820Z,59.33
2023-01-19T15:20:29.952Z,59.85
2023-01-19T15:22:57.040Z,59.94
2023-01-19T15:25:25.537Z,59.81
2023-01-19T15:27:55.961Z,59.81
2023-01-19T15:30:30.292Z,59.77
2023-01-19T15:32:58.409Z,59.48
2023-01-19T15:35:26.023Z,59.55
2023-01-19T15:37:53.026Z,59.35
2023-01-19T15:40:22.384Z,59.44
2023-01-19T15:42:50.166Z,59.60
2023-01-19T15:45:41.854Z,59.32
2023-01-19T15:48:10.853Z,59.10
2023-01-19T15:50:40.912Z,58.72
2023-01-19T15:53:13.240Z,58.66
2023-01-19T15:55:40.184Z,58.78
2023-01-19T15:58:08.646Z,58.62
2023-01-19T16:00:36.075Z,59.05
2023-01-19T16:03:03.436Z,59.14
2023-01-19T16:05:42.637Z,58.87
2023-01-19T16:08:11.213Z,58.82
2023-01-19T16:10:39.349Z,59.15
2023-01-19T16:13:06.830Z,59.04
2023-01-19T16:15:35.913Z,58.96
2023-01-19T16:18:04.382Z,59.33
2023-01-19T16:20:31.648Z,59.53
2023-01-19T16:23:09.647Z,60.42
2023-01-19T16:25:41.121Z,61.46
2023-01-19T16:28:08.532Z,62.51
2023-01-19T16:30:35.582Z,63.77
2023-01-19T16:33:02.634Z,64.66
2023-01-19T16:35:29.607Z,65.60
2023-01-19T16:37:56.551Z,66.24
2023-01-19T16:40:23.520Z,67.34
2023-01-19T16:42:50.582Z,67.99
2023-01-19T16:45:17.660Z,68.34
2023-01-19T16:47:49.854Z,68.82
2023-01-19T16:50:16.813Z,68.64
2023-01-19T16:52:44.259Z,70.90
2023-01-19T16:55:11.718Z,72.03
2023-01-19T16:57:38.747Z,71.81
2023-01-19T17:00:09.769Z,72.50
2023-01-19T17:02:37.075Z,72.62
2023-01-19T17:05:04.405Z,72.87
2023-01-19T17:07:31.364Z,72.30
2023-01-19T17:09:58.475Z,72.48
2023-01-19T17:12:25.833Z,72.51
2023-01-19T17:14:52.928Z,71.98
2023-01-19T17:17:19.903Z,72.61
2023-01-19T17:19:46.901Z,72.56
2023-01-19T17:22:14.514Z,72.74
2023-01-19T17:24:42.703Z,72.78
2023-01-19T17:27:09.782Z,72.59
2023-01-19T17:29:36.717Z,72.37
2023-01-19T17:32:04.055Z,72.30
2023-01-19T17:34:31.473Z,72.57
2023-01-19T17:37:02.319Z,72.61
2023-01-19T17:39:29.204Z,73.21
2023-01-19T17:41:56.281Z,73.40
2023-01-19T17:44:23.351Z,73.17
2023-01-19T17:46:50.401Z,72.84
2023-01-19T17:49:17.476Z,72.80
2023-01-19T17:51:44.466Z,72.48
2023-01-19T17:54:11.923Z,72.49
2023-01-19T17:56:40.650Z,72.72
2023-01-19T17:59:08.203Z,72.14
2023-01-19T18:01:39.132Z,72.00
2023-01-19T18:04:07.165Z,71.90
2023-01-19T18:06:34.435Z,71.48
2023-01-19T18:09:02.552Z,71.45
2023-01-19T18:11:30.245Z,71.45
2023-01-19T18:13:57.929Z,71.00
2023-01-19T18:16:27.325Z,70.68
2023-01-19T18:18:55.952Z,70.86
2023-01-19T18:21:24.541Z,70.90
2023-01-19T18:23:51.630Z,70.88
2023-01-19T18:26:20.882Z,70.82
2023-01-19T18:28:48.592Z,70.23
2023-01-19T18:31:17.614Z,70.27
2023-01-19T18:33:45.124Z,70.22
2023-01-19T18:36:12.915Z,70.09
2023-01-19T18:38:40.500Z,70.25
2023-01-19T18:41:11.723Z,70.47
2023-01-19T18:43:38.771Z,70.42
2023-01-19T18:46:06.826Z,70.50
2023-01-19T18:48:33.965Z,70.48
2023-01-19T18:51:05.753Z,70.41
2023-01-19T18:53:32.882Z,70.37
2023-01-19T18:56:04.111Z,70.26
2023-01-19T18:58:32.685Z,70.64
2023-01-19T19:01:01.113Z,70.71
2023-01-19T19:03:28.597Z,70.93
2023-01-19T19:05:55.808Z,70.67
2023-01-19T19:08:22.924Z,70.63
2023-01-19T19:10:49.876Z,70.54
2023-01-19T19:13:17.193Z,70.60
2023-01-19T19:15:44.280Z,70.30
2023-01-19T19:18:13.175Z,70.47
2023-01-19T19:20:41.475Z,70.41
2023-01-19T19:23:09.314Z,70.18
2023-01-19T19:25:36.432Z,70.46
2023-01-19T19:28:04.079Z,70.31
2023-01-19T19:30:33.776Z,70.05
2023-01-19T19:33:01.007Z,70.19
2023-01-19T19:35:28.121Z,70.27
2023-01-19T19:37:56.824Z,70.32
2023-01-19T19:40:28.049Z,70.30
2023-01-19T19:42:56.977Z,70.25
2023-01-19T19:45:25.655Z,70.29
2023-01-19T19:47:52.601Z,70.25
2023-01-19T19:50:19.641Z,70.29
2023-01-19T19:52:46.622Z,70.55
2023-01-19T19:55:13.682Z,70.52
2023-01-19T19:57:40.678Z,70.60
2023-01-19T20:00:08.247Z,70.80
2023-01-19T20:02:37.802Z,70.48
2023-01-19T20:05:05.385Z,70.64
2023-01-19T20:07:32.405Z,70.60
2023-01-19T20:09:59.398Z,70.58
2023-01-19T20:12:26.920Z,70.60
2023-01-19T20:14:53.851Z,70.53
2023-01-19T20:17:20.942Z,70.38
2023-01-19T20:19:48.394Z,70.41
2023-01-19T20:22:15.492Z,70.40
2023-01-19T20:24:42.575Z,70.40
2023-01-19T20:27:09.652Z,70.49
2023-01-19T20:29:36.613Z,70.49
2023-01-19T20:32:03.694Z,70.26
2023-01-19T20:34:33.455Z,70.32
2023-01-19T20:37:01.957Z,70.08
2023-01-19T20:39:32.549Z,70.24
2023-01-19T20:42:00.542Z,70.53
2023-01-19T20:44:28.112Z,70.38
2023-01-19T20:46:55.265Z,70.22
2023-01-19T20:49:23.026Z,70.28
2023-01-19T20:51:51.406Z,70.29
2023-01-19T20:54:21.777Z,70.31
2023-01-19T20:56:48.908Z,70.09
2023-01-19T20:59:16.520Z,70.33
2023-01-19T21:01:44.220Z,69.81
2023-01-19T21:04:12.057Z,69.94
2023-01-19T21:06:39.056Z,69.91
2023-01-19T21:09:06.844Z,69.90
2023-01-19T21:11:34.615Z,69.54
2023-01-19T21:14:02.146Z,69.36
2023-01-19T21:16:32.958Z,69.15
2023-01-19T21:19:00.018Z,68.75
2023-01-19T21:21:31.672Z,68.37
2023-01-19T21:24:00.810Z,68.08
2023-01-19T21:26:32.676Z,68.04
2023-01-19T21:29:01.373Z,68.14
2023-01-19T21:31:28.894Z,68.10
2023-01-19T21:33:57.248Z,67.96
2023-01-19T21:36:24.794Z,68.25
2023-01-19T21:38:52.200Z,68.52
2023-01-19T21:41:19.852Z,69.04
2023-01-19T21:43:46.888Z,69.28
2023-01-19T21:46:33.483Z,69.40
2023-01-19T21:49:03.416Z,69.68
2023-01-19T21:51:33.003Z,69.87
2023-01-19T21:54:03.915Z,70.00
2023-01-19T21:56:31.121Z,70.41
2023-01-19T21:59:01.679Z,70.12
2023-01-19T22:01:29.308Z,70.43
2023-01-19T22:03:57.655Z,70.53
2023-01-19T22:06:26.382Z,70.54
2023-01-19T22:08:54.418Z,70.59
2023-01-19T22:11:21.777Z,70.47
2023-01-19T22:13:49.031Z,70.45
2023-01-19T22:16:18.968Z,70.40
2023-01-19T22:18:50.597Z,70.45
2023-01-19T22:21:20.681Z,70.45
2023-01-19T22:23:49.628Z,70.53
2023-01-19T22:26:16.835Z,70.59
2023-01-19T22:28:43.977Z,70.61
2023-01-19T22:31:16.441Z,70.43
2023-01-19T22:33:44.093Z,70.53
2023-01-19T22:36:22.618Z,70.38
2023-01-19T22:38:57.883Z,70.33
2023-01-19T22:41:30.899Z,70.31
2023-01-19T22:44:03.400Z,70.26
2023-01-19T22:46:32.710Z,70.29
2023-01-19T22:49:00.138Z,70.29
2023-01-19T22:51:28.970Z,70.28
2023-01-19T22:53:56.608Z,70.49
2023-01-19T22:56:26.685Z,70.86
2023-01-19T22:58:54.041Z,70.98
2023-01-19T23:01:23.684Z,72.01
2023-01-19T23:03:51.003Z,71.61
2023-01-19T23:06:24.370Z,71.76
2023-01-19T23:08:51.885Z,71.90
2023-01-19T23:11:27.726Z,71.57
2023-01-19T23:13:55.209Z,71.45
2023-01-19T23:16:22.344Z,71.62
2023-01-19T23:18:52.786Z,72.08
2023-01-19T23:21:21.282Z,72.82
2023-01-19T23:23:48.399Z,72.57
2023-01-19T23:26:19.211Z,72.71
2023-01-19T23:28:46.732Z,73.42
2023-01-19T23:31:22.259Z,73.58
2023-01-19T23:33:55.016Z,73.54
2023-01-19T23:36:23.916Z,73.24
2023-01-19T23:38:53.749Z,73.31
2023-01-19T23:41:22.326Z,73.47
2023-01-19T23:43:49.643Z,73.87
2023-01-19T23:46:18.095Z,74.09
2023-01-19T23:48:45.723Z,74.31
2023-01-19T23:51:22.830Z,74.43
2023-01-19T23:53:50.743Z,74.61
2023-01-19T23:56:29.696Z,74.51
2023-01-19T23:59:01.155Z,74.54
